Time;durP1;ratioP1;P1;durP2;ratioP2;P2;SDS_P1;SDS_P2;PMS_P1;PMS_P2;Temp;Humidity;BMP_temperature;BMP_pressure;BME280_temperature;BME280_humidity;BME280_pressure;Samples;Min_cycle;Max_cycle;Signal;HPM_P1;HPM_P2
2022/06/03 00:01:12;;;;;;;11.70;11.30;;;20.60;55.60;;;;;;5070956;28;20515;-67
2022/06/03 00:03:55;;;;;;;11.53;11.13;;;20.60;55.70;;;;;;5070987;28;20482;-66
2022/06/03 00:06:40;;;;;;;12.60;12.10;;;20.60;55.80;;;;;;5070623;28;20485;-66
2022/06/03 00:09:34;;;;;;;11.67;11.37;;;20.60;56.40;;;;;;5070609;28;20458;-67
2022/06/03 00:12:27;;;;;;;12.20;11.80;;;20.60;56.00;;;;;;5070997;28;20882;-67
2022/06/03 00:15:16;;;;;;;11.13;10.83;;;20.50;56.00;;;;;;5073092;28;20538;-66
2022/06/03 00:17:59;;;;;;;11.97;11.57;;;20.50;56.10;;;;;;5071128;28;20470;-66
2022/06/03 00:20:39;;;;;;;11.50;11.20;;;20.50;56.20;;;;;;5074394;28;20443;-66
2022/06/03 00:23:32;;;;;;;12.37;11.97;;;20.50;56.20;;;;;;5074204;28;20555;-66
2022/06/03 00:26:35;;;;;;;11.83;11.53;;;20.50;56.40;;;;;;5074042;28;20657;-66
2022/06/03 00:29:13;;;;;;;11.10;10.80;;;20.50;56.40;;;;;;5031392;28;20442;-66
2022/06/03 00:32:03;;;;;;;11.73;11.33;;;20.50;56.50;;;;;;5074223;28;20521;-68
2022/06/03 00:34:52;;;;;;;12.10;11.70;;;20.50;56.60;;;;;;5070820;28;20561;-66
2022/06/03 00:37:31;;;;;;;11.60;11.20;;;20.50;56.80;;;;;;5073711;28;20519;-66
2022/06/03 00:40:10;;;;;;;12.50;12.10;;;20.50;57.00;;;;;;5074265;28;20442;-66
2022/06/03 00:43:20;;;;;;;12.70;12.30;;;20.50;57.10;;;;;;5073831;28;20491;-66
2022/06/03 00:46:16;;;;;;;11.40;11.10;;;20.50;57.20;;;;;;5073430;28;20841;-66
2022/06/03 00:48:59;;;;;;;12.50;12.00;;;20.40;57.30;;;;;;5073665;28;20454;-66
2022/06/03 00:52:09;;;;;;;12.40;12.00;;;20.40;57.40;;;;;;5073879;28;20809;-66
2022/06/03 00:55:12;;;;;;;12.53;12.03;;;20.40;57.60;;;;;;5073502;28;20530;-66
2022/06/03 00:58:15;;;;;;;12.00;11.63;;;20.40;57.70;;;;;;5070691;28;20946;-66
2022/06/03 01:00:57;;;;;;;11.60;11.30;;;20.30;57.60;;;;;;5073617;28;20526;-66
2022/06/03 01:03:36;;;;;;;12.07;11.67;;;20.30;57.70;;;;;;5073489;28;20542;-66
2022/06/03 01:06:15;;;;;;;11.50;11.20;;;20.30;58.00;;;;;;5073254;28;20565;-66
2022/06/03 01:08:58;;;;;;;12.00;11.60;;;20.40;58.10;;;;;;5073283;28;20530;-67
2022/06/03 01:11:50;;;;;;;12.23;11.83;;;20.40;58.20;;;;;;5073559;28;20486;-66
2022/06/03 01:14:26;;;;;;;12.73;12.30;;;20.40;58.40;;;;;;5073322;28;20558;-66
2022/06/03 01:17:07;;;;;;;12.00;11.60;;;20.30;59.00;;;;;;5072813;28;20530;-66
2022/06/03 01:20:03;;;;;;;12.83;12.43;;;20.30;58.60;;;;;;5073185;28;20522;-66
2022/06/03 01:22:53;;;;;;;12.30;11.90;;;20.30;58.60;;;;;;5071503;28;20558;-66
2022/06/03 01:25:52;;;;;;;12.93;12.53;;;20.30;58.60;;;;;;5069476;28;20501;-67
2022/06/03 01:29:00;;;;;;;12.50;12.10;;;20.30;58.70;;;;;;5032004;28;20522;-66
2022/06/03 01:31:57;;;;;;;12.80;12.37;;;20.30;58.80;;;;;;5052773;28;20594;-66
2022/06/03 01:34:39;;;;;;;11.80;11.50;;;20.20;58.90;;;;;;5072725;28;20562;-67
2022/06/03 01:37:16;;;;;;;12.03;11.63;;;20.20;58.90;;;;;;5052846;28;21006;-67
2022/06/03 01:39:57;;;;;;;11.93;11.63;;;20.20;58.90;;;;;;5052785;28;20533;-67
2022/06/03 01:43:10;;;;;;;13.00;12.60;;;20.20;58.90;;;;;;5056890;28;20526;-66
2022/06/03 01:46:11;;;;;;;12.77;12.37;;;20.20;58.90;;;;;;5072651;28;20566;-66
2022/06/03 01:49:07;;;;;;;12.47;12.07;;;20.20;59.00;;;;;;5046437;28;20435;-66
2022/06/03 01:52:06;;;;;;;12.43;12.03;;;20.20;59.10;;;;;;5058982;28;20526;-66
2022/06/03 01:55:19;;;;;;;12.77;12.27;;;20.10;59.20;;;;;;5052484;28;20613;-66
2022/06/03 01:58:19;;;;;;;12.73;12.23;;;20.10;59.20;;;;;;5020117;28;20523;-66
2022/06/03 02:00:55;;;;;;;12.20;11.83;;;20.10;59.30;;;;;;5052565;28;20532;-67
2022/06/03 02:03:44;;;;;;;12.60;12.20;;;20.10;59.30;;;;;;5064234;28;20563;-67
2022/06/03 02:06:51;;;;;;;12.50;12.10;;;20.10;59.50;;;;;;5072232;28;20569;-66
2022/06/03 02:10:01;;;;;;;12.50;12.10;;;20.10;59.40;;;;;;5052187;28;20527;-66
2022/06/03 02:13:03;;;;;;;13.03;12.53;;;20.10;59.40;;;;;;5056173;28;20529;-66
2022/06/03 02:15:58;;;;;;;12.50;12.00;;;20.10;59.40;;;;;;5072135;28;20873;-66
2022/06/03 02:19:00;;;;;;;12.30;11.90;;;20.00;59.30;;;;;;5071990;28;20533;-66
2022/06/03 02:21:57;;;;;;;12.10;11.80;;;20.00;59.40;;;;;;5072210;28;20521;-66
2022/06/03 02:24:56;;;;;;;12.47;11.93;;;20.00;59.30;;;;;;5071834;28;20899;-66
2022/06/03 02:27:49;;;;;;;12.73;12.20;;;20.00;59.30;;;;;;5071738;28;21085;-66
2022/06/03 02:30:52;;;;;;;12.60;12.20;;;20.00;59.30;;;;;;5071928;28;20518;-66
2022/06/03 02:34:03;;;;;;;12.93;12.53;;;20.00;60.00;;;;;;5071494;28;20557;-67
2022/06/03 02:36:58;;;;;;;12.63;12.23;;;20.00;59.60;;;;;;5071345;28;20806;-66
2022/06/03 02:40:09;;;;;;;12.80;12.40;;;20.00;59.70;;;;;;5071805;28;20535;-66
2022/06/03 02:42:58;;;;;;;13.00;12.60;;;19.90;59.80;;;;;;5008018;28;20546;-66
2022/06/03 02:45:44;;;;;;;13.07;12.67;;;19.90;59.80;;;;;;5071746;28;20985;-67
2022/06/03 02:48:42;;;;;;;13.00;12.60;;;19.90;59.90;;;;;;5071304;28;20436;-66
2022/06/03 02:51:37;;;;;;;12.87;12.47;;;19.90;59.90;;;;;;5027475;28;20469;-67
2022/06/03 02:54:39;;;;;;;12.53;12.20;;;19.90;60.00;;;;;;5034964;28;20547;-66
2022/06/03 02:57:42;;;;;;;12.60;12.20;;;19.90;60.10;;;;;;5068139;28;20598;-66
2022/06/03 03:00:18;;;;;;;12.00;11.60;;;19.80;60.00;;;;;;5064909;28;20789;-66
2022/06/03 03:03:17;;;;;;;13.10;12.63;;;19.80;60.20;;;;;;5071208;28;20459;-66
2022/06/03 03:06:00;;;;;;;13.37;12.87;;;19.80;60.90;;;;;;5031151;28;20946;-66
2022/06/03 03:08:50;;;;;;;12.40;12.10;;;19.80;60.20;;;;;;5071326;28;20479;-66
2022/06/03 03:11:41;;;;;;;12.50;12.10;;;19.80;60.20;;;;;;5071235;28;20455;-66
2022/06/03 03:14:34;;;;;;;12.57;12.10;;;19.80;60.20;;;;;;5071417;28;20469;-66
2022/06/03 03:17:27;;;;;;;12.60;12.10;;;19.70;60.10;;;;;;5071330;28;20682;-66
2022/06/03 03:20:32;;;;;;;13.23;12.83;;;19.70;60.00;;;;;;5071200;28;20530;-66
2022/06/03 03:23:39;;;;;;;13.33;12.83;;;19.70;60.20;;;;;;5035763;28;20464;-66
2022/06/03 03:26:16;;;;;;;12.93;12.53;;;19.70;60.30;;;;;;5051210;28;20963;-66
2022/06/03 03:29:04;;;;;;;13.47;12.97;;;19.70;60.30;;;;;;5051178;28;20440;-66
2022/06/03 03:31:55;;;;;;;13.73;13.33;;;19.70;60.40;;;;;;5059310;28;20473;-66
2022/06/03 03:34:36;;;;;;;13.27;12.87;;;19.70;60.50;;;;;;5054322;28;20562;-66
2022/06/03 03:37:50;;;;;;;13.57;13.10;;;19.70;60.70;;;;;;5071080;28;20439;-66
2022/06/03 03:41:04;;;;;;;13.40;12.90;;;19.70;60.60;;;;;;5037202;28;20441;-66
2022/06/03 03:43:56;;;;;;;13.03;12.67;;;19.70;60.50;;;;;;5071233;28;20467;-67
2022/06/03 03:47:00;;;;;;;14.90;14.40;;;19.60;60.50;;;;;;5051027;28;20494;-66
2022/06/03 03:50:07;;;;;;;13.20;12.70;;;19.60;60.50;;;;;;5054717;28;20523;-66
2022/06/03 03:53:06;;;;;;;14.40;13.80;;;19.60;60.60;;;;;;5071421;28;20605;-66
2022/06/03 03:56:08;;;;;;;13.20;12.80;;;19.60;60.70;;;;;;5074570;28;20447;-66
2022/06/03 03:59:24;;;;;;;13.47;13.00;;;19.60;60.90;;;;;;5006625;28;21015;-66
2022/06/03 04:02:16;;;;;;;14.50;13.90;;;19.50;61.10;;;;;;5074654;28;20523;-66
2022/06/03 04:05:11;;;;;;;14.37;13.87;;;19.50;61.90;;;;;;5074723;28;20525;-67
2022/06/03 04:08:13;;;;;;;14.83;14.33;;;19.50;64.30;;;;;;5074247;28;20566;-66
2022/06/03 04:11:09;;;;;;;16.23;15.13;;;19.50;67.50;;;;;;5074701;28;20855;-64
2022/06/03 04:14:07;;;;;;;14.50;13.90;;;19.60;73.10;;;;;;5070775;28;20897;-65
2022/06/03 04:16:59;;;;;;;14.50;13.83;;;19.60;71.70;;;;;;5060995;28;20461;-65
2022/06/03 04:20:02;;;;;;;13.90;13.50;;;19.60;69.20;;;;;;5072410;28;20828;-66
2022/06/03 04:23:03;;;;;;;14.97;14.27;;;19.60;69.50;;;;;;5073934;28;20533;-65
2022/06/03 04:25:51;;;;;;;14.57;13.97;;;19.60;67.90;;;;;;5074348;28;20522;-65
2022/06/03 04:28:50;;;;;;;14.20;13.70;;;19.70;67.10;;;;;;5073993;28;21005;-65
2022/06/03 04:31:50;;;;;;;14.07;13.57;;;19.70;66.40;;;;;;5074341;28;20522;-65
2022/06/03 04:34:50;;;;;;;14.97;14.17;;;19.70;65.80;;;;;;5098473;22;20582;-63
2022/06/03 04:37:53;;;;;;;13.80;13.30;;;19.70;65.50;;;;;;5069699;28;20445;-63
2022/06/03 04:41:03;;;;;;;14.13;13.73;;;19.70;65.20;;;;;;5074053;28;20522;-64
2022/06/03 04:44:14;;;;;;;14.37;13.90;;;19.70;64.80;;;;;;4999162;28;20562;-64
2022/06/03 04:47:35;;;;;;;14.40;13.83;;;19.70;64.50;;;;;;5074168;28;20479;-64
2022/06/03 04:50:40;;;;;;;15.00;14.33;;;19.70;64.40;;;;;;5073912;28;20538;-63
2022/06/03 04:53:45;;;;;;;14.20;13.70;;;19.70;64.10;;;;;;5033429;28;20473;-63
2022/06/03 04:56:43;;;;;;;14.90;14.40;;;19.70;64.10;;;;;;5073687;28;20447;-63
2022/06/03 05:00:02;;;;;;;14.80;14.30;;;19.70;64.10;;;;;;5073077;28;20445;-63
2022/06/03 05:03:14;;;;;;;14.40;14.00;;;19.70;64.00;;;;;;5073621;28;20561;-63
2022/06/03 05:06:20;;;;;;;14.67;14.17;;;19.70;63.80;;;;;;5073578;28;20522;-63
2022/06/03 05:09:32;;;;;;;14.43;14.03;;;19.80;63.60;;;;;;5073389;28;20451;-63
2022/06/03 05:12:44;;;;;;;14.80;14.30;;;19.70;63.40;;;;;;5073407;28;21009;-64
2022/06/03 05:15:49;;;;;;;15.53;14.40;;;19.80;63.40;;;;;;5073361;28;20439;-64
2022/06/03 05:19:05;;;;;;;15.20;14.70;;;19.80;63.20;;;;;;5073140;28;20522;-63
2022/06/03 05:22:11;;;;;;;14.30;13.90;;;19.70;63.00;;;;;;5073057;28;20443;-63
2022/06/03 05:25:17;;;;;;;14.73;14.23;;;19.70;62.90;;;;;;5029105;28;20550;-63
2022/06/03 05:28:10;;;;;;;14.40;13.90;;;19.80;62.90;;;;;;5038970;28;20479;-63
2022/06/03 05:31:16;;;;;;;14.00;13.60;;;19.80;62.70;;;;;;5073106;28;20444;-65
2022/06/03 05:34:16;;;;;;;14.30;13.87;;;19.80;63.30;;;;;;5072824;28;20475;-64
2022/06/03 05:37:05;;;;;;;14.70;14.10;;;19.80;62.40;;;;;;5072946;28;20441;-63
2022/06/03 05:39:58;;;;;;;13.80;13.40;;;19.80;62.30;;;;;;5072839;28;20871;-63
2022/06/03 05:42:44;;;;;;;14.53;14.13;;;19.80;62.30;;;;;;5072910;28;20598;-63
2022/06/03 05:45:46;;;;;;;13.80;13.40;;;19.80;62.20;;;;;;5072726;28;20465;-64
2022/06/03 05:48:20;;;;;;;14.50;14.10;;;19.80;62.10;;;;;;5042004;28;20565;-63
2022/06/03 05:50:57;;;;;;;15.50;14.70;;;19.80;61.90;;;;;;5072700;28;20447;-63
2022/06/03 05:53:38;;;;;;;13.93;13.53;;;19.80;62.70;;;;;;5072535;28;20974;-64
2022/06/03 05:56:31;;;;;;;15.20;14.70;;;19.80;61.80;;;;;;5072605;28;20447;-63
2022/06/03 05:59:05;;;;;;;14.50;13.90;;;19.80;61.70;;;;;;5072432;28;20604;-64
2022/06/03 06:01:48;;;;;;;13.90;13.50;;;19.90;61.70;;;;;;5072432;28;20443;-64
2022/06/03 06:04:25;;;;;;;13.87;13.47;;;19.80;61.60;;;;;;5072227;28;20608;-64
2022/06/03 06:07:08;;;;;;;14.30;13.80;;;19.90;61.70;;;;;;5072007;28;20595;-63
2022/06/03 06:09:52;;;;;;;13.67;13.27;;;19.90;61.60;;;;;;5072408;28;21013;-63
2022/06/03 06:12:30;;;;;;;13.80;13.40;;;19.90;61.60;;;;;;5071332;28;20876;-64
2022/06/03 06:15:19;;;;;;;14.63;14.03;;;19.90;61.50;;;;;;5072208;28;20541;-64
2022/06/03 06:18:01;;;;;;;14.23;13.83;;;19.90;61.50;;;;;;5071917;28;20444;-64
2022/06/03 06:20:47;;;;;;;14.57;14.17;;;19.90;61.60;;;;;;5072424;28;20458;-63
2022/06/03 06:23:20;;;;;;;14.60;14.10;;;19.90;61.60;;;;;;5071989;28;20547;-65
2022/06/03 06:26:14;;;;;;;14.40;13.80;;;19.90;61.50;;;;;;5072092;28;20443;-63
2022/06/03 06:29:01;;;;;;;14.33;13.93;;;19.90;61.50;;;;;;5071644;28;20482;-63
2022/06/03 06:31:49;;;;;;;14.50;14.10;;;19.90;61.50;;;;;;5072215;28;21013;-63
2022/06/03 06:34:31;;;;;;;13.83;13.43;;;19.90;61.30;;;;;;5071874;28;20550;-63
2022/06/03 06:37:30;;;;;;;13.83;13.43;;;19.90;61.30;;;;;;5071806;28;20538;-63
2022/06/03 06:40:09;;;;;;;14.37;13.67;;;19.90;61.40;;;;;;5037703;28;20546;-63
2022/06/03 06:42:51;;;;;;;14.13;13.70;;;19.90;61.50;;;;;;5071785;28;20449;-63
2022/06/03 06:45:30;;;;;;;14.20;13.70;;;19.90;61.50;;;;;;5071839;28;20451;-63
2022/06/03 06:48:09;;;;;;;14.70;14.20;;;19.90;61.50;;;;;;5071495;28;20478;-63
2022/06/03 06:50:46;;;;;;;14.90;14.40;;;19.90;61.30;;;;;;5071652;28;20443;-63
2022/06/03 06:53:20;;;;;;;14.40;13.70;;;20.00;62.20;;;;;;5071658;28;21015;-63
2022/06/03 06:56:01;;;;;;;14.67;14.20;;;20.00;62.20;;;;;;5071761;28;20522;-63
2022/06/03 06:58:42;;;;;;;14.40;14.00;;;20.00;61.40;;;;;;5071365;28;20443;-64
2022/06/03 07:01:11;;;;;;;14.23;13.73;;;20.00;61.40;;;;;;5071620;28;20447;-63
2022/06/03 07:04:03;;;;;;;14.10;13.50;;;20.00;61.40;;;;;;5071434;28;20547;-63
2022/06/03 07:06:41;;;;;;;13.67;13.27;;;20.00;61.40;;;;;;5052245;28;20522;-62
2022/06/03 07:09:39;;;;;;;13.83;13.43;;;20.00;61.30;;;;;;5071287;28;20894;-63
2022/06/03 07:12:12;;;;;;;14.47;13.97;;;20.00;61.40;;;;;;5068389;28;20466;-64
2022/06/03 07:14:51;;;;;;;14.13;13.73;;;20.00;61.30;;;;;;5071335;28;20541;-64
2022/06/03 07:20:27;;;;;;;14.73;14.23;;;20.00;61.50;;;;;;5034908;28;20431;-63
2022/06/03 07:22:56;;;;;;;14.63;14.23;;;20.00;61.40;;;;;;5072365;28;20459;-65
2022/06/03 07:25:27;;;;;;;14.30;13.90;;;20.00;61.50;;;;;;5075645;28;20517;-63
2022/06/03 07:28:00;;;;;;;14.40;13.80;;;20.00;61.50;;;;;;5075118;28;20489;-62
2022/06/03 07:30:38;;;;;;;14.70;14.30;;;20.00;61.60;;;;;;5075384;28;20947;-63
2022/06/03 07:33:11;;;;;;;14.93;14.43;;;20.10;61.60;;;;;;5075338;28;21009;-63
2022/06/03 07:35:45;;;;;;;13.60;13.20;;;20.00;61.70;;;;;;5075199;28;20447;-64
2022/06/03 07:38:26;;;;;;;14.57;14.17;;;20.10;61.80;;;;;;5074874;28;20930;-64
2022/06/03 07:40:59;;;;;;;14.90;14.50;;;20.10;61.90;;;;;;5075076;28;20501;-63
2022/06/03 07:43:36;;;;;;;14.20;13.80;;;20.10;61.80;;;;;;5075045;28;20899;-63
2022/06/03 07:46:07;;;;;;;13.97;13.57;;;20.10;61.90;;;;;;5075083;28;20449;-63
2022/06/03 07:48:36;;;;;;;14.20;13.70;;;20.10;61.90;;;;;;5074982;28;20532;-63
2022/06/03 07:51:09;;;;;;;14.30;13.90;;;20.10;61.90;;;;;;5074947;28;20455;-64
2022/06/03 07:53:43;;;;;;;14.40;14.00;;;20.10;61.90;;;;;;5074881;28;20829;-63
2022/06/03 07:56:11;;;;;;;14.13;13.73;;;20.10;61.90;;;;;;5074906;28;20539;-63
2022/06/03 07:58:40;;;;;;;13.67;13.30;;;20.10;61.90;;;;;;5074592;28;20957;-64
2022/06/03 08:01:07;;;;;;;14.90;14.50;;;20.10;61.80;;;;;;5074719;28;20446;-64
2022/06/03 08:03:38;;;;;;;14.70;14.30;;;20.10;61.80;;;;;;5074542;28;20557;-63
2022/06/03 08:06:07;;;;;;;14.60;14.20;;;20.10;61.90;;;;;;5074640;28;21013;-63
2022/06/03 08:11:27;;;;;;;14.63;14.23;;;20.20;62.00;;;;;;5074784;28;20419;-63
2022/06/03 08:13:58;;;;;;;14.43;14.03;;;20.10;61.80;;;;;;5074395;28;20553;-64
2022/06/03 08:16:30;;;;;;;14.27;13.87;;;20.10;61.80;;;;;;5074495;28;20546;-63
2022/06/03 08:19:01;;;;;;;14.47;14.07;;;20.10;62.50;;;;;;5074155;28;20442;-63
2022/06/03 08:21:35;;;;;;;14.57;14.10;;;20.10;61.70;;;;;;5074534;28;20867;-63
2022/06/03 08:24:04;;;;;;;14.70;14.30;;;20.20;61.70;;;;;;5074295;28;20517;-64
2022/06/03 08:26:32;;;;;;;14.80;14.30;;;20.20;61.60;;;;;;5074262;28;20541;-63
2022/06/03 08:29:10;;;;;;;15.57;15.07;;;20.20;61.60;;;;;;5074019;28;20916;-63
2022/06/03 08:31:39;;;;;;;14.50;14.10;;;20.20;61.50;;;;;;5074265;28;20447;-63
2022/06/03 08:34:09;;;;;;;14.70;14.30;;;20.20;61.40;;;;;;5073405;28;20475;-64
2022/06/03 08:36:40;;;;;;;14.67;14.23;;;20.20;62.10;;;;;;5073924;28;20449;-63
2022/06/03 08:39:10;;;;;;;14.63;14.00;;;20.20;61.20;;;;;;5074199;28;20534;-63
2022/06/03 08:41:52;;;;;;;14.30;13.90;;;20.20;61.00;;;;;;5074096;28;20446;-64
2022/06/03 08:44:34;;;;;;;14.40;14.00;;;20.20;61.00;;;;;;5074183;28;20542;-64
2022/06/03 08:47:07;;;;;;;14.53;14.13;;;20.30;61.10;;;;;;5073790;28;20621;-63
2022/06/03 08:49:47;;;;;;;14.30;13.90;;;20.20;61.00;;;;;;5073658;28;21077;-63
2022/06/03 08:52:16;;;;;;;14.10;13.70;;;20.20;61.10;;;;;;5073754;28;20447;-63
2022/06/03 08:54:49;;;;;;;14.30;13.90;;;20.30;61.20;;;;;;5073745;28;20550;-64
2022/06/03 08:57:22;;;;;;;14.00;13.60;;;20.30;61.20;;;;;;5073537;28;20536;-64
2022/06/03 09:00:02;;;;;;;14.83;14.43;;;20.30;61.30;;;;;;5073810;28;20454;-63
2022/06/03 09:02:33;;;;;;;14.20;13.80;;;20.30;61.30;;;;;;5073563;28;20520;-64
2022/06/03 09:05:05;;;;;;;14.33;13.93;;;20.30;62.10;;;;;;5073700;28;20549;-63
2022/06/03 09:07:39;;;;;;;14.47;14.07;;;20.30;62.30;;;;;;5073187;28;20482;-63
2022/06/03 09:10:14;;;;;;;14.23;13.83;;;20.30;61.50;;;;;;5073562;28;20447;-63
2022/06/03 09:12:52;;;;;;;14.90;14.30;;;20.30;61.50;;;;;;5073304;28;20453;-64
2022/06/03 09:15:22;;;;;;;14.30;13.80;;;20.30;61.70;;;;;;5073329;28;20458;-64
2022/06/03 09:17:53;;;;;;;14.03;13.63;;;20.30;61.80;;;;;;5073209;28;20530;-64
2022/06/03 09:20:24;;;;;;;14.40;14.00;;;20.40;61.90;;;;;;5073255;28;20538;-64
2022/06/03 09:22:58;;;;;;;15.47;15.07;;;20.40;61.80;;;;;;5073483;28;20479;-64
2022/06/03 09:25:25;;;;;;;14.03;13.63;;;20.40;62.00;;;;;;5073290;28;20482;-64
2022/06/03 09:27:53;;;;;;;15.07;14.57;;;20.40;62.90;;;;;;5073188;28;20989;-63
2022/06/03 09:30:28;;;;;;;16.40;15.60;;;20.40;62.20;;;;;;5073067;28;20535;-63
2022/06/03 09:32:58;;;;;;;14.00;13.60;;;20.40;62.20;;;;;;5072754;28;20579;-64
2022/06/03 09:35:27;;;;;;;14.63;14.23;;;20.40;62.10;;;;;;5072888;28;20539;-62
2022/06/03 09:37:58;;;;;;;14.70;14.30;;;20.40;62.00;;;;;;5072697;28;20444;-64
2022/06/03 09:40:30;;;;;;;14.57;14.17;;;20.40;62.80;;;;;;5072971;28;20479;-63
2022/06/03 09:43:00;;;;;;;14.00;13.60;;;20.50;62.20;;;;;;5072752;28;20542;-63
2022/06/03 09:45:29;;;;;;;14.20;13.80;;;20.50;62.10;;;;;;5072644;28;20451;-63
2022/06/03 09:47:57;;;;;;;14.30;13.90;;;20.50;62.80;;;;;;5072373;28;20450;-64
2022/06/03 09:50:26;;;;;;;14.73;14.33;;;20.50;62.00;;;;;;5072625;28;20443;-63
2022/06/03 09:53:02;;;;;;;14.40;14.00;;;20.50;62.10;;;;;;5072523;28;20463;-64
2022/06/03 09:55:33;;;;;;;15.13;14.63;;;20.50;62.10;;;;;;5072536;28;20526;-63
2022/06/03 09:58:02;;;;;;;14.47;14.07;;;20.50;62.10;;;;;;5072239;28;20551;-63
2022/06/03 10:00:37;;;;;;;14.87;14.47;;;20.50;62.10;;;;;;5072735;28;20446;-63
2022/06/03 10:03:05;;;;;;;14.40;14.00;;;20.50;63.00;;;;;;5072374;28;20549;-64
2022/06/03 10:05:32;;;;;;;14.93;14.43;;;20.50;62.10;;;;;;5072318;28;20961;-63
2022/06/03 10:08:02;;;;;;;13.93;13.63;;;20.60;62.00;;;;;;5072022;28;21041;-63
2022/06/03 10:13:15;;;;;;;14.67;14.27;;;20.60;62.00;;;;;;5072466;28;20443;-63
2022/06/03 10:15:47;;;;;;;13.87;13.53;;;20.60;62.00;;;;;;5072303;28;20525;-63
2022/06/03 10:18:20;;;;;;;15.30;14.83;;;20.60;62.80;;;;;;5071991;28;20471;-63
2022/06/03 10:20:48;;;;;;;14.07;13.67;;;20.60;62.00;;;;;;5072183;28;20813;-63
2022/06/03 10:23:15;;;;;;;14.00;13.60;;;20.60;62.00;;;;;;5072028;28;20902;-63
2022/06/03 10:25:49;;;;;;;15.33;14.83;;;20.60;62.00;;;;;;5072070;28;20446;-63
2022/06/03 10:28:17;;;;;;;15.03;14.63;;;20.60;62.00;;;;;;5071816;28;20523;-66
2022/06/03 10:30:46;;;;;;;14.10;13.70;;;20.60;62.10;;;;;;5071859;28;20533;-64
2022/06/03 10:33:17;;;;;;;14.40;14.00;;;20.70;62.20;;;;;;5072384;28;20475;-64
2022/06/03 10:35:45;;;;;;;15.33;14.87;;;20.70;62.20;;;;;;5071854;28;20522;-64
2022/06/03 10:38:15;;;;;;;14.27;13.87;;;20.70;62.20;;;;;;5071593;28;20497;-64
2022/06/03 10:40:44;;;;;;;14.30;13.90;;;20.70;62.20;;;;;;5071780;28;20534;-64
2022/06/03 10:43:12;;;;;;;14.40;14.00;;;20.70;62.30;;;;;;5071967;28;20471;-64
2022/06/03 10:45:40;;;;;;;14.73;14.33;;;20.70;63.10;;;;;;5071742;28;20818;-64
2022/06/03 10:48:29;;;;;;;14.70;14.20;;;20.70;62.30;;;;;;5071503;28;20443;-64
2022/06/03 10:51:14;;;;;;;13.83;13.43;;;20.70;62.30;;;;;;5066053;28;20447;-64
2022/06/03 11:02:15;;;;;;;13.90;13.50;;;20.80;62.50;;;;;;5071648;28;20856;-64
2022/06/03 11:04:43;;;;;;;14.30;13.90;;;20.80;63.30;;;;;;5071468;28;20551;-64
2022/06/03 11:07:25;;;;;;;14.00;13.60;;;20.80;62.70;;;;;;5071321;28;20540;-64
2022/06/03 11:09:56;;;;;;;13.70;13.30;;;20.80;62.70;;;;;;5071324;28;20589;-65
2022/06/03 11:12:25;;;;;;;15.23;14.77;;;20.80;62.70;;;;;;5071532;28;20451;-65
2022/06/03 11:14:52;;;;;;;14.40;14.00;;;20.80;62.60;;;;;;5071229;28;20467;-65
2022/06/03 11:17:21;;;;;;;13.90;13.50;;;20.80;62.70;;;;;;5071223;28;21029;-64
2022/06/03 11:19:53;;;;;;;14.47;14.07;;;20.90;62.90;;;;;;5071412;28;20526;-65
2022/06/03 11:22:32;;;;;;;14.10;13.70;;;20.90;63.00;;;;;;5071337;28;20444;-65
2022/06/03 11:25:09;;;;;;;15.63;15.13;;;20.90;63.40;;;;;;5071334;28;20443;-64
2022/06/03 11:27:49;;;;;;;13.90;13.50;;;20.90;63.70;;;;;;5071076;28;20446;-64
2022/06/03 11:30:19;;;;;;;14.57;14.10;;;20.90;63.70;;;;;;5071196;28;20479;-64
2022/06/03 11:32:50;;;;;;;13.90;13.50;;;20.90;63.60;;;;;;5071181;28;20513;-64
2022/06/03 11:35:27;;;;;;;14.10;13.70;;;20.90;63.50;;;;;;5071354;28;20530;-64
2022/06/03 11:37:59;;;;;;;13.80;13.40;;;21.00;63.70;;;;;;5071002;28;20449;-65
2022/06/03 11:40:31;;;;;;;13.53;13.13;;;21.00;64.30;;;;;;5071188;28;20485;-64
2022/06/03 11:43:02;;;;;;;14.10;13.70;;;21.00;63.50;;;;;;5071148;28;20532;-65
2022/06/03 11:45:38;;;;;;;14.40;14.00;;;21.00;63.50;;;;;;5071193;28;20526;-64
2022/06/03 11:48:11;;;;;;;14.50;14.10;;;21.00;63.60;;;;;;5070947;28;20443;-65
2022/06/03 11:50:39;;;;;;;13.83;13.43;;;21.00;63.50;;;;;;5071079;28;20920;-66
2022/06/03 11:53:06;;;;;;;13.80;13.40;;;21.00;63.60;;;;;;5070955;28;20463;-65
2022/06/03 11:55:34;;;;;;;13.67;13.27;;;21.00;64.40;;;;;;5070960;28;20530;-67
2022/06/03 11:58:05;;;;;;;14.03;13.63;;;21.10;64.00;;;;;;5070760;28;20914;-68
2022/06/03 12:00:38;;;;;;;13.50;13.10;;;21.10;64.50;;;;;;5071012;28;20527;-66
2022/06/03 12:03:20;;;;;;;13.37;13.07;;;21.10;64.50;;;;;;5070954;28;21057;-66
2022/06/03 12:05:56;;;;;;;13.57;13.17;;;21.10;64.50;;;;;;5070976;28;20542;-64
2022/06/03 12:08:27;;;;;;;13.67;13.27;;;21.10;65.30;;;;;;5070698;28;20872;-65
2022/06/03 12:10:59;;;;;;;13.80;13.40;;;21.20;64.50;;;;;;5073471;28;20824;-65
2022/06/03 12:13:29;;;;;;;14.03;13.53;;;21.10;65.00;;;;;;5074508;28;20471;-66
2022/06/03 12:16:03;;;;;;;13.57;13.17;;;21.20;64.90;;;;;;5074425;28;20443;-65
2022/06/03 12:18:58;;;;;;;14.07;13.70;;;21.20;64.50;;;;;;5074427;28;20446;-65
2022/06/03 12:21:52;;;;;;;15.00;14.60;;;21.20;64.60;;;;;;5074711;28;20445;-65
2022/06/03 12:24:44;;;;;;;14.10;13.70;;;21.20;64.70;;;;;;5074329;28;20995;-66
2022/06/03 12:27:17;;;;;;;13.63;13.23;;;21.20;64.60;;;;;;5074172;28;21001;-66
2022/06/03 12:29:51;;;;;;;13.60;13.20;;;21.30;65.40;;;;;;5074267;28;20582;-65
2022/06/03 12:32:24;;;;;;;13.60;13.30;;;21.30;64.40;;;;;;5074348;28;20530;-66
2022/06/03 12:34:51;;;;;;;14.03;13.63;;;21.20;64.20;;;;;;5073979;28;20567;-65
2022/06/03 12:37:27;;;;;;;13.30;12.90;;;21.20;64.20;;;;;;5073944;28;20541;-64
2022/06/03 12:40:02;;;;;;;14.60;14.13;;;21.30;65.00;;;;;;5074044;28;20528;-68
2022/06/03 12:42:41;;;;;;;14.43;14.03;;;21.30;64.20;;;;;;5073949;28;20443;-68
2022/06/03 12:45:33;;;;;;;13.90;13.50;;;21.30;64.20;;;;;;5073995;28;20450;-65
2022/06/03 12:48:00;;;;;;;14.10;13.70;;;21.30;64.20;;;;;;5073667;28;21024;-65
2022/06/03 12:50:39;;;;;;;14.80;14.40;;;21.30;64.30;;;;;;5073833;28;20912;-66
2022/06/03 12:53:42;;;;;;;13.67;13.27;;;21.30;64.50;;;;;;5073760;28;20471;-65
2022/06/03 12:56:33;;;;;;;14.17;13.77;;;21.40;64.50;;;;;;5074101;28;20443;-66
2022/06/03 12:59:06;;;;;;;14.30;13.90;;;21.40;65.00;;;;;;5073580;28;20802;-66
2022/06/03 13:01:42;;;;;;;13.23;12.83;;;21.40;65.20;;;;;;5073692;28;20435;-66
2022/06/03 13:05:16;;;;;;;14.10;13.70;;;21.40;65.10;;;;;;5073524;28;20502;-65
2022/06/03 13:08:01;;;;;;;13.60;13.20;;;21.40;64.90;;;;;;5073461;28;20458;-65
2022/06/03 13:10:55;;;;;;;13.70;13.30;;;21.40;64.90;;;;;;5073467;28;20537;-65
2022/06/03 13:13:51;;;;;;;14.57;14.07;;;21.50;65.30;;;;;;5073644;28;20558;-66
2022/06/03 13:16:42;;;;;;;13.27;12.87;;;21.50;65.30;;;;;;5073470;28;20526;-65
2022/06/03 13:19:49;;;;;;;13.57;13.17;;;21.50;65.30;;;;;;5073258;28;20523;-65
2022/06/03 13:22:21;;;;;;;13.80;13.40;;;21.60;65.40;;;;;;5072825;28;20514;-67
2022/06/03 13:25:22;;;;;;;13.93;13.50;;;21.50;65.70;;;;;;5072489;28;20494;-64
2022/06/03 13:28:14;;;;;;;13.83;13.43;;;21.50;66.90;;;;;;5072938;28;20446;-66
2022/06/03 13:30:41;;;;;;;13.60;13.30;;;21.60;67.00;;;;;;5073324;28;20479;-65
2022/06/03 13:33:20;;;;;;;13.93;13.53;;;21.60;67.40;;;;;;5072824;28;20566;-64
2022/06/03 13:36:02;;;;;;;13.93;13.53;;;21.60;67.70;;;;;;5060719;28;20490;-66
2022/06/03 13:38:44;;;;;;;13.80;13.30;;;21.60;68.10;;;;;;5052721;28;20842;-64
2022/06/03 13:44:17;;;;;;;14.10;13.70;;;21.70;70.00;;;;;;5064705;28;21072;-65
2022/06/03 13:46:48;;;;;;;12.10;11.60;;;21.70;68.60;;;;;;5059218;28;20443;-66
2022/06/03 13:49:25;;;;;;;12.00;11.70;;;21.70;68.80;;;;;;5051653;28;20454;-69
2022/06/03 13:51:57;;;;;;;14.13;13.73;;;21.80;69.20;;;;;;5052732;28;20197;-68
2022/06/03 13:54:37;;;;;;;13.83;13.43;;;21.90;69.30;;;;;;5066278;28;21037;-67
2022/06/03 13:57:17;;;;;;;14.63;14.10;;;21.90;69.10;;;;;;5072488;28;20526;-67
2022/06/03 13:59:47;;;;;;;13.90;13.50;;;21.90;69.40;;;;;;5072657;28;20446;-66
2022/06/03 14:02:19;;;;;;;13.90;13.50;;;21.90;69.80;;;;;;5072451;28;20451;-65
2022/06/03 14:04:50;;;;;;;14.27;13.87;;;22.00;70.00;;;;;;5072496;28;20463;-65
2022/06/03 14:07:26;;;;;;;13.90;13.40;;;22.00;70.30;;;;;;5072227;28;20470;-65
2022/06/03 14:09:55;;;;;;;14.20;13.80;;;22.00;69.30;;;;;;5072086;28;20569;-65
2022/06/03 14:12:30;;;;;;;13.80;13.40;;;22.00;69.00;;;;;;5072282;28;20466;-65